createdAt,value
2022-12-08T00:00:16.203Z,18.23
2022-12-08T00:02:44.446Z,23.30
2022-12-08T00:05:30.083Z,25.67
2022-12-08T00:08:16.143Z,22.40
2022-12-08T00:10:49.649Z,23.10
2022-12-08T00:13:17.288Z,28.40
2022-12-08T00:15:44.366Z,26.97
2022-12-08T00:18:12.029Z,25.07
2022-12-08T00:20:38.723Z,23.07
2022-12-08T00:23:05.758Z,25.97
2022-12-08T00:25:36.296Z,23.83
2022-12-08T00:28:02.980Z,27.53
2022-12-08T00:30:30.038Z,23.63
2022-12-08T00:32:57.075Z,28.03
2022-12-08T00:35:24.134Z,24.60
2022-12-08T00:37:57.566Z,25.23
2022-12-08T00:40:27.644Z,25.13
2022-12-08T00:42:56.008Z,21.40
2022-12-08T00:45:23.373Z,21.60
2022-12-08T00:47:50.434Z,22.70
2022-12-08T00:50:17.523Z,24.57
2022-12-08T00:52:44.571Z,24.87
2022-12-08T00:55:11.644Z,23.07
2022-12-08T00:57:38.723Z,24.80
2022-12-08T01:00:06.590Z,27.80
2022-12-08T01:02:34.319Z,22.53
2022-12-08T01:05:01.404Z,23.43
2022-12-08T01:07:28.524Z,24.03
2022-12-08T01:09:55.662Z,22.67
2022-12-08T01:12:22.322Z,22.27
2022-12-08T01:14:49.402Z,25.77
2022-12-08T01:17:16.464Z,24.23
2022-12-08T01:19:43.624Z,25.17
2022-12-08T01:22:10.718Z,26.80
2022-12-08T01:24:37.772Z,27.60
2022-12-08T01:27:05.670Z,24.87
2022-12-08T01:29:32.773Z,24.57
2022-12-08T01:31:59.428Z,24.17
2022-12-08T01:34:26.496Z,24.13
2022-12-08T01:36:53.108Z,28.73
2022-12-08T01:39:20.099Z,33.27
2022-12-08T01:41:47.631Z,27.37
2022-12-08T01:44:14.691Z,28.53
2022-12-08T01:46:43.922Z,25.27
2022-12-08T01:49:15.247Z,26.83
2022-12-08T01:51:56.129Z,26.10
2022-12-08T01:54:28.406Z,28.50
2022-12-08T01:57:05.899Z,23.13
2022-12-08T01:59:36.192Z,23.37
2022-12-08T02:02:03.996Z,29.37
2022-12-08T02:04:30.743Z,22.37
2022-12-08T02:06:59.274Z,28.40
2022-12-08T02:09:28.508Z,23.40
2022-12-08T02:11:57.591Z,27.40
2022-12-08T02:14:25.110Z,33.17
2022-12-08T02:16:52.140Z,26.77
2022-12-08T02:20:02.166Z,24.37
2022-12-08T02:22:59.566Z,30.60
2022-12-08T02:25:59.691Z,25.97
2022-12-08T02:28:46.589Z,28.37
2022-12-08T02:31:57.600Z,29.00
2022-12-08T02:34:27.062Z,21.33
2022-12-08T02:37:26.060Z,26.27
2022-12-08T02:40:18.423Z,22.30
2022-12-08T02:42:50.745Z,28.77
2022-12-08T02:45:26.709Z,28.50
2022-12-08T02:47:53.919Z,27.13
2022-12-08T02:50:21.032Z,22.53
2022-12-08T02:52:48.317Z,22.80
2022-12-08T02:55:18.769Z,23.83
2022-12-08T02:57:51.188Z,27.83
2022-12-08T03:00:21.663Z,26.07
2022-12-08T03:03:10.124Z,25.00
2022-12-08T03:06:17.304Z,24.00
2022-12-08T03:08:59.546Z,23.70
2022-12-08T03:11:44.201Z,22.83
2022-12-08T03:14:15.675Z,19.90
2022-12-08T03:16:46.190Z,26.63
2022-12-08T03:19:23.698Z,22.43
2022-12-08T03:21:53.680Z,20.73
2022-12-08T03:24:22.935Z,24.80
2022-12-08T03:26:59.880Z,23.33
2022-12-08T03:29:27.019Z,26.40
2022-12-08T03:31:58.141Z,23.13
2022-12-08T03:34:28.040Z,24.10
2022-12-08T03:36:55.129Z,23.07
2022-12-08T03:39:22.215Z,22.57
2022-12-08T03:41:49.301Z,28.70
2022-12-08T03:44:16.366Z,24.80
2022-12-08T03:46:43.432Z,25.20
2022-12-08T03:49:10.497Z,28.53
2022-12-08T03:51:37.580Z,29.20
2022-12-08T03:54:04.932Z,26.03
2022-12-08T03:56:35.711Z,26.13
2022-12-08T03:59:03.129Z,23.90
2022-12-08T04:01:30.331Z,27.10
2022-12-08T04:03:57.473Z,29.30
2022-12-08T04:06:24.467Z,28.80
2022-12-08T04:08:51.978Z,26.87
2022-12-08T04:11:19.525Z,35.07
2022-12-08T04:13:46.871Z,28.87
2022-12-08T04:16:23.831Z,33.17
2022-12-08T04:18:50.972Z,25.53
2022-12-08T04:21:18.104Z,29.57
2022-12-08T04:23:45.171Z,29.10
2022-12-08T04:26:12.464Z,22.50
2022-12-08T04:28:39.524Z,33.47
2022-12-08T04:31:06.914Z,24.83
2022-12-08T04:33:35.076Z,34.17
2022-12-08T04:36:03.166Z,25.03
2022-12-08T04:38:30.379Z,27.47
2022-12-08T04:40:57.474Z,28.43
2022-12-08T04:43:24.126Z,26.97
2022-12-08T04:45:51.190Z,31.33
2022-12-08T04:48:18.217Z,28.67
2022-12-08T04:50:45.739Z,26.40
2022-12-08T04:53:13.664Z,29.27
2022-12-08T04:55:43.700Z,27.07
2022-12-08T04:58:14.613Z,26.47
2022-12-08T05:00:42.102Z,26.60
2022-12-08T05:03:09.363Z,25.30
2022-12-08T05:05:36.654Z,29.73
2022-12-08T05:08:03.880Z,24.47
2022-12-08T05:10:31.142Z,23.80
2022-12-08T05:12:59.030Z,25.43
2022-12-08T05:15:26.187Z,24.10
2022-12-08T05:17:52.858Z,28.43
2022-12-08T05:20:20.151Z,24.73
2022-12-08T05:22:47.240Z,28.77
2022-12-08T05:25:14.853Z,23.93
2022-12-08T05:27:42.988Z,24.93
2022-12-08T05:30:10.127Z,22.63
2022-12-08T05:32:37.235Z,22.93
2022-12-08T05:35:04.001Z,34.58
2022-12-08T05:37:31.056Z,25.63
2022-12-08T05:39:58.111Z,21.30
2022-12-08T05:42:25.343Z,22.10
2022-12-08T05:44:52.608Z,21.77
2022-12-08T05:47:19.670Z,23.70
2022-12-08T05:49:46.412Z,22.43
2022-12-08T05:52:13.510Z,22.23
2022-12-08T05:54:40.590Z,21.73
2022-12-08T05:57:07.680Z,21.77
2022-12-08T05:59:34.786Z,26.07
2022-12-08T06:02:02.018Z,21.20
2022-12-08T06:04:28.660Z,21.50
2022-12-08T06:06:55.726Z,23.40
2022-12-08T06:09:22.820Z,21.73
2022-12-08T06:11:49.894Z,22.10
2022-12-08T06:14:16.992Z,19.30
2022-12-08T06:16:44.084Z,21.27
2022-12-08T06:19:11.195Z,16.67
2022-12-08T06:21:38.279Z,21.67
2022-12-08T06:24:05.073Z,21.07
2022-12-08T06:26:32.165Z,20.70
2022-12-08T06:29:00.670Z,19.87
2022-12-08T06:31:27.988Z,17.37
2022-12-08T06:33:55.201Z,19.90
2022-12-08T06:36:24.828Z,18.53
2022-12-08T06:38:51.892Z,19.30
2022-12-08T06:41:19.322Z,18.37
2022-12-08T06:43:46.337Z,16.43
2022-12-08T06:46:15.885Z,17.27
2022-12-08T06:48:42.727Z,17.73
2022-12-08T06:51:12.304Z,15.43
2022-12-08T06:53:39.466Z,17.47
2022-12-08T06:56:06.870Z,16.57
2022-12-08T06:58:34.238Z,21.30
2022-12-08T07:01:09.638Z,17.90
2022-12-08T07:03:37.422Z,18.43
2022-12-08T07:06:05.200Z,18.47
2022-12-08T07:08:32.747Z,22.30
2022-12-08T07:10:59.974Z,20.03
2022-12-08T07:13:27.057Z,20.57
2022-12-08T07:15:54.450Z,20.50
2022-12-08T07:18:21.529Z,20.27
2022-12-08T07:20:48.862Z,21.13
2022-12-08T07:23:16.085Z,20.13
2022-12-08T07:25:43.366Z,22.73
2022-12-08T07:28:11.203Z,24.67
2022-12-08T07:30:39.134Z,28.67
2022-12-08T07:33:06.573Z,19.97
2022-12-08T07:35:35.190Z,27.43
2022-12-08T07:38:02.532Z,29.03
2022-12-08T07:40:30.648Z,23.43
2022-12-08T07:42:57.714Z,25.30
2022-12-08T07:45:29.865Z,26.00
2022-12-08T07:47:58.271Z,21.60
2022-12-08T07:50:25.324Z,20.97
2022-12-08T07:52:52.479Z,19.50
2022-12-08T07:55:19.532Z,22.40
2022-12-08T07:57:46.154Z,21.77
2022-12-08T08:00:13.469Z,19.90
2022-12-08T08:02:40.766Z,16.03
2022-12-08T08:05:08.205Z,17.00
2022-12-08T08:07:36.597Z,14.07
2022-12-08T08:10:04.325Z,9.23
2022-12-08T08:12:32.618Z,8.97
2022-12-08T08:15:00.686Z,9.53
2022-12-08T08:17:28.459Z,11.10
2022-12-08T08:19:55.484Z,9.73
2022-12-08T08:22:22.553Z,9.50
2022-12-08T08:24:49.203Z,9.37
2022-12-08T08:27:16.324Z,10.50
2022-12-08T08:29:43.485Z,10.57
2022-12-08T08:32:10.588Z,12.27
2022-12-08T08:34:37.493Z,11.13
2022-12-08T08:37:04.742Z,12.60
2022-12-08T08:39:31.957Z,10.10
2022-12-08T08:41:59.244Z,16.03
2022-12-08T08:44:26.318Z,14.60
2022-12-08T08:46:53.423Z,10.67
2022-12-08T08:49:21.261Z,13.40
2022-12-08T08:51:48.267Z,11.37
2022-12-08T08:54:15.333Z,30.97
2022-12-08T08:56:42.380Z,11.17
2022-12-08T08:59:10.001Z,13.00
2022-12-08T09:01:37.150Z,13.03
2022-12-08T09:04:04.403Z,12.70
2022-12-08T09:06:31.773Z,11.60
2022-12-08T09:08:58.462Z,12.57
2022-12-08T09:11:25.641Z,14.27
2022-12-08T09:13:53.510Z,21.60
2022-12-08T09:16:20.846Z,14.50
2022-12-08T09:18:51.289Z,15.03
2022-12-08T09:21:22.513Z,13.50
2022-12-08T09:23:50.742Z,11.90
2022-12-08T09:26:17.447Z,15.07
2022-12-08T09:28:46.458Z,13.97
2022-12-08T09:31:17.836Z,13.33
2022-12-08T09:33:44.968Z,15.60
2022-12-08T09:36:12.029Z,14.63
2022-12-08T09:38:39.665Z,15.40
2022-12-08T09:41:17.229Z,15.87
2022-12-08T09:44:07.121Z,14.37
2022-12-08T09:46:35.461Z,14.10
2022-12-08T09:49:03.193Z,13.10
2022-12-08T09:51:41.374Z,16.30
2022-12-08T09:54:44.592Z,16.63
2022-12-08T09:57:16.834Z,14.40
2022-12-08T09:59:47.808Z,14.17
2022-12-08T10:02:26.551Z,13.60
2022-12-08T10:04:55.884Z,12.13
2022-12-08T10:07:59.874Z,12.73
2022-12-08T10:10:38.119Z,12.97
2022-12-08T10:13:17.548Z,10.13
2022-12-08T10:16:24.273Z,10.63
2022-12-08T10:19:05.291Z,13.30
2022-12-08T10:21:32.912Z,10.40
2022-12-08T10:24:10.836Z,13.13
2022-12-08T10:26:37.669Z,15.77
2022-12-08T10:29:06.406Z,13.17
2022-12-08T10:31:33.617Z,14.27
2022-12-08T10:34:10.173Z,9.60
2022-12-08T10:36:56.015Z,10.83
2022-12-08T10:39:40.760Z,10.67
2022-12-08T10:42:21.855Z,11.33
2022-12-08T10:44:51.313Z,10.70
2022-12-08T10:47:21.203Z,9.20
2022-12-08T10:49:48.312Z,8.83
2022-12-08T10:52:39.061Z,10.67
2022-12-08T10:55:15.176Z,9.73
2022-12-08T10:57:42.340Z,12.60
2022-12-08T11:00:14.710Z,10.70
2022-12-08T11:03:01.054Z,7.70
2022-12-08T11:05:36.065Z,9.60
2022-12-08T11:08:04.833Z,9.90
2022-12-08T11:10:36.266Z,8.40
2022-12-08T11:13:06.203Z,8.53
2022-12-08T11:15:37.831Z,7.87
2022-12-08T11:18:43.825Z,10.43
2022-12-08T11:21:15.033Z,8.37
2022-12-08T11:23:46.143Z,16.70
2022-12-08T11:26:32.481Z,6.30
2022-12-08T11:28:59.712Z,6.50
2022-12-08T11:31:32.063Z,6.97
2022-12-08T11:33:59.260Z,6.63
2022-12-08T11:36:29.287Z,6.47
2022-12-08T11:38:58.216Z,8.33
2022-12-08T11:41:39.433Z,8.00
2022-12-08T11:44:35.901Z,5.57
2022-12-08T11:47:06.440Z,5.30
2022-12-08T11:49:43.857Z,4.30
2022-12-08T11:52:42.016Z,3.50
2022-12-08T11:55:38.946Z,3.37
2022-12-08T11:58:21.393Z,5.03
2022-12-08T12:00:48.594Z,4.23
2022-12-08T12:03:33.748Z,3.77
2022-12-08T12:06:46.637Z,3.23
2022-12-08T12:09:37.499Z,3.50
2022-12-08T12:12:36.314Z,5.33
2022-12-08T12:15:49.647Z,5.23
2022-12-08T12:18:31.527Z,5.37
2022-12-08T12:21:24.369Z,7.40
2022-12-08T12:24:05.493Z,8.73
2022-12-08T12:26:37.478Z,7.97
2022-12-08T12:29:16.622Z,8.03
2022-12-08T12:31:48.513Z,8.03
2022-12-08T12:34:20.809Z,8.50
2022-12-08T12:36:57.406Z,8.23
2022-12-08T12:39:29.191Z,10.40
2022-12-08T12:42:00.149Z,8.70
2022-12-08T12:44:29.780Z,10.87
2022-12-08T12:47:01.246Z,7.27
2022-12-08T12:49:43.803Z,19.10
2022-12-08T12:52:10.445Z,23.73
2022-12-08T12:54:43.285Z,16.00
2022-12-08T12:57:10.336Z,9.50
2022-12-08T12:59:43.059Z,17.07
2022-12-08T13:02:35.899Z,10.07
2022-12-08T13:05:28.741Z,12.10
2022-12-08T13:08:00.699Z,8.93
2022-12-08T13:10:37.908Z,8.43
2022-12-08T13:13:24.857Z,6.37
2022-12-08T13:15:53.542Z,6.77
2022-12-08T13:18:36.376Z,7.50
2022-12-08T13:21:08.879Z,6.87
2022-12-08T13:23:38.628Z,6.90
2022-12-08T13:26:17.578Z,6.50
2022-12-08T13:28:59.802Z,7.70
2022-12-08T13:31:54.842Z,8.73
2022-12-08T13:34:31.201Z,5.73
2022-12-08T13:36:58.257Z,6.50
2022-12-08T13:39:30.280Z,6.47
2022-12-08T13:42:12.310Z,7.83
2022-12-08T13:45:18.734Z,7.87
2022-12-08T13:47:34.736Z,11.43
2022-12-08T13:53:49.043Z,11.17
2022-12-08T13:58:47.205Z,10.23
2022-12-08T14:01:24.651Z,17.83
2022-12-08T14:06:48.061Z,9.53
2022-12-08T14:09:18.666Z,6.20
2022-12-08T14:11:51.523Z,5.03
2022-12-08T14:14:45.857Z,6.57
2022-12-08T14:17:14.511Z,4.47
2022-12-08T14:19:45.006Z,5.90
2022-12-08T14:22:17.379Z,5.40
2022-12-08T14:24:49.052Z,5.27
2022-12-08T14:27:19.345Z,5.97
2022-12-08T14:29:58.151Z,5.20
2022-12-08T14:32:30.745Z,6.37
2022-12-08T14:34:57.882Z,5.47
2022-12-08T14:37:27.447Z,6.10
2022-12-08T14:40:01.575Z,7.13
2022-12-08T14:42:29.152Z,8.53
2022-12-08T14:45:09.855Z,6.93
2022-12-08T14:47:36.924Z,7.50
2022-12-08T14:50:24.443Z,8.43
2022-12-08T14:52:51.685Z,9.93
2022-12-08T14:55:18.493Z,6.53
2022-12-08T14:57:49.109Z,10.20
2022-12-08T15:00:20.326Z,7.30
2022-12-08T15:02:47.674Z,6.70
2022-12-08T15:05:20.636Z,5.93
2022-12-08T15:07:54.115Z,10.20
2022-12-08T15:10:26.623Z,8.23
2022-12-08T15:13:00.441Z,10.10
2022-12-08T15:15:27.723Z,6.47
2022-12-08T15:18:40.337Z,9.23
2022-12-08T15:21:09.807Z,9.33
2022-12-08T15:23:42.590Z,7.63
2022-12-08T15:26:09.804Z,14.87
2022-12-08T15:28:36.948Z,8.47
2022-12-08T15:31:04.062Z,9.23
2022-12-08T15:33:31.212Z,6.80
2022-12-08T15:35:58.277Z,9.33
2022-12-08T15:38:26.995Z,9.40
2022-12-08T15:40:54.981Z,7.50
2022-12-08T15:43:22.758Z,9.87
2022-12-08T15:45:58.456Z,9.03
2022-12-08T15:48:29.103Z,9.67
2022-12-08T15:50:56.628Z,10.80
2022-12-08T15:53:23.669Z,17.70
2022-12-08T15:56:25.723Z,14.57
2022-12-08T15:58:54.171Z,10.10
2022-12-08T16:01:22.778Z,11.13
2022-12-08T16:07:19.849Z,11.87
2022-12-08T16:09:38.649Z,13.83
2022-12-08T16:12:25.557Z,11.77
2022-12-08T16:17:40.846Z,21.23
2022-12-08T16:20:16.668Z,14.73
2022-12-08T16:22:56.392Z,11.30
2022-12-08T16:25:46.176Z,16.17
2022-12-08T16:28:52.241Z,13.63
2022-12-08T16:31:08.836Z,18.57
2022-12-08T16:33:38.882Z,19.07
2022-12-08T16:36:06.049Z,19.87
2022-12-08T16:38:33.256Z,15.60
2022-12-08T16:41:18.859Z,12.23
2022-12-08T16:43:45.618Z,15.93
2022-12-08T16:46:25.875Z,14.40
2022-12-08T16:48:52.549Z,15.63
2022-12-08T16:51:26.591Z,28.13
2022-12-08T16:53:54.331Z,15.60
2022-12-08T16:56:26.189Z,16.10
2022-12-08T16:58:57.323Z,16.97
2022-12-08T17:01:24.957Z,14.97
2022-12-08T17:04:22.392Z,14.77
2022-12-08T17:06:39.155Z,16.27
2022-12-08T17:09:06.214Z,16.90
2022-12-08T17:11:39.047Z,15.77
2022-12-08T17:14:09.653Z,22.63
2022-12-08T17:16:36.814Z,29.57
2022-12-08T17:19:03.987Z,21.43
2022-12-08T17:21:31.104Z,14.87
2022-12-08T17:23:58.201Z,13.10
2022-12-08T17:26:24.944Z,12.27
2022-12-08T17:29:00.438Z,14.07
2022-12-08T17:31:30.182Z,11.87
2022-12-08T17:34:01.928Z,12.97
2022-12-08T17:36:29.101Z,14.33
2022-12-08T17:38:57.044Z,11.50
2022-12-08T17:41:24.264Z,12.13
2022-12-08T17:43:51.331Z,13.10
2022-12-08T17:46:18.944Z,11.67
2022-12-08T17:48:45.715Z,11.10
2022-12-08T17:51:12.884Z,12.57
2022-12-08T17:53:40.680Z,11.63
2022-12-08T17:56:15.239Z,11.13
2022-12-08T17:58:42.324Z,12.87
2022-12-08T18:01:10.306Z,11.93
2022-12-08T18:03:37.941Z,12.10
2022-12-08T18:06:06.555Z,10.47
2022-12-08T18:08:33.263Z,10.53
2022-12-08T18:11:00.319Z,13.43
2022-12-08T18:13:27.607Z,12.20
2022-12-08T18:15:54.764Z,10.87
2022-12-08T18:18:22.656Z,12.67
2022-12-08T18:20:50.068Z,10.50
2022-12-08T18:23:17.670Z,10.83
2022-12-08T18:25:44.997Z,10.57
2022-12-08T18:28:11.695Z,11.23
2022-12-08T18:30:40.267Z,9.30
2022-12-08T18:33:07.637Z,9.90
2022-12-08T18:35:35.086Z,11.37
2022-12-08T18:38:01.942Z,10.50
2022-12-08T18:40:29.045Z,10.73
2022-12-08T18:42:56.140Z,10.73
2022-12-08T18:45:23.192Z,11.43
2022-12-08T18:47:51.235Z,10.20
2022-12-08T18:50:18.307Z,9.33
2022-12-08T18:52:45.963Z,10.70
2022-12-08T18:55:13.130Z,10.53
2022-12-08T18:57:42.718Z,9.00
2022-12-08T19:00:13.143Z,15.90
2022-12-08T19:02:40.407Z,18.27
2022-12-08T19:05:09.193Z,11.23
2022-12-08T19:07:36.496Z,11.93
2022-12-08T19:10:04.618Z,9.37
2022-12-08T19:12:31.590Z,11.70
2022-12-08T19:14:58.660Z,11.67
2022-12-08T19:17:25.894Z,10.47
2022-12-08T19:19:52.781Z,12.57
2022-12-08T19:22:19.852Z,12.53
2022-12-08T19:24:47.056Z,14.03
2022-12-08T19:27:13.680Z,12.43
2022-12-08T19:29:40.467Z,12.37
2022-12-08T19:32:07.628Z,13.90
2022-12-08T19:34:34.763Z,14.27
2022-12-08T19:37:01.818Z,11.13
2022-12-08T19:39:47.233Z,11.50
2022-12-08T19:42:39.350Z,11.40
2022-12-08T19:45:08.291Z,13.53
2022-12-08T19:47:35.127Z,12.87
2022-12-08T19:50:21.134Z,9.93
2022-12-08T19:52:47.853Z,12.47
2022-12-08T19:55:15.028Z,12.93
2022-12-08T19:57:42.273Z,10.50
2022-12-08T20:00:11.490Z,12.57
2022-12-08T20:02:39.032Z,10.87
2022-12-08T20:05:06.428Z,12.50
2022-12-08T20:07:33.830Z,11.40
2022-12-08T20:10:02.437Z,14.53
2022-12-08T20:12:29.787Z,13.33
2022-12-08T20:14:56.850Z,10.70
2022-12-08T20:17:23.925Z,11.47
2022-12-08T20:19:51.122Z,16.60
2022-12-08T20:22:18.018Z,12.53
2022-12-08T20:24:47.853Z,11.67
2022-12-08T20:27:17.565Z,12.67
2022-12-08T20:29:44.193Z,14.07
2022-12-08T20:32:11.295Z,11.80
2022-12-08T20:34:38.089Z,14.60
2022-12-08T20:37:05.252Z,11.60
2022-12-08T20:39:32.398Z,13.20
2022-12-08T20:42:00.133Z,12.47
2022-12-08T20:44:29.335Z,13.33
2022-12-08T20:46:56.908Z,13.10
2022-12-08T20:49:26.319Z,18.90
2022-12-08T20:51:56.997Z,13.43
2022-12-08T20:54:24.144Z,13.23
2022-12-08T20:56:51.618Z,11.90
2022-12-08T20:59:20.219Z,11.33
2022-12-08T21:01:46.985Z,12.10
2022-12-08T21:04:14.667Z,13.47
2022-12-08T21:06:41.917Z,15.60
2022-12-08T21:09:09.265Z,14.50
2022-12-08T21:11:36.557Z,14.63
2022-12-08T21:14:03.868Z,16.53
2022-12-08T21:16:30.682Z,13.77
2022-12-08T21:18:57.941Z,12.70
2022-12-08T21:21:25.122Z,16.30
2022-12-08T21:23:52.303Z,14.47
2022-12-08T21:26:21.680Z,19.23
2022-12-08T21:28:48.548Z,13.13
2022-12-08T21:31:18.617Z,15.20
2022-12-08T21:33:46.115Z,15.93
2022-12-08T21:36:16.236Z,16.03
2022-12-08T21:38:43.915Z,15.17
2022-12-08T21:41:14.518Z,19.30
2022-12-08T21:43:43.209Z,14.77
2022-12-08T21:46:19.050Z,17.93
2022-12-08T21:48:45.922Z,16.83
2022-12-08T21:51:12.664Z,17.83
2022-12-08T21:53:39.328Z,16.13
2022-12-08T21:56:09.138Z,18.23
2022-12-08T21:58:36.679Z,15.97
2022-12-08T22:01:07.902Z,12.50
2022-12-08T22:03:35.153Z,12.97
2022-12-08T22:06:13.848Z,10.10
2022-12-08T22:08:41.239Z,8.67
2022-12-08T22:11:08.743Z,9.57
2022-12-08T22:13:37.693Z,10.37
2022-12-08T22:16:07.486Z,8.17
2022-12-08T22:18:35.445Z,9.27
2022-12-08T22:21:07.708Z,7.97
2022-12-08T22:23:34.996Z,9.07
2022-12-08T22:26:03.309Z,7.43
2022-12-08T22:28:36.563Z,10.00
2022-12-08T22:31:18.387Z,7.90
2022-12-08T22:33:45.923Z,9.17
2022-12-08T22:36:22.366Z,9.07
2022-12-08T22:38:49.749Z,8.80
2022-12-08T22:41:19.285Z,10.03
2022-12-08T22:43:47.027Z,10.47
2022-12-08T22:46:22.378Z,9.07
2022-12-08T22:48:50.628Z,10.37
2022-12-08T22:51:18.137Z,9.10
2022-12-08T22:53:45.887Z,7.00
2022-12-08T22:56:14.704Z,8.83
2022-12-08T22:58:41.973Z,8.03
2022-12-08T23:01:09.062Z,8.60
2022-12-08T23:03:36.241Z,8.30
2022-12-08T23:06:03.519Z,8.93
2022-12-08T23:08:30.848Z,9.97
2022-12-08T23:10:58.403Z,9.57
2022-12-08T23:13:25.537Z,9.90
2022-12-08T23:15:52.701Z,10.60
2022-12-08T23:18:19.430Z,10.13
2022-12-08T23:20:47.180Z,10.43
2022-12-08T23:23:14.631Z,10.03
2022-12-08T23:25:42.222Z,11.67
2022-12-08T23:28:10.407Z,11.33
2022-12-08T23:30:40.096Z,11.47
2022-12-08T23:33:07.195Z,11.87
2022-12-08T23:35:34.344Z,12.37
2022-12-08T23:38:01.627Z,9.13
2022-12-08T23:40:28.850Z,13.57
2022-12-08T23:42:56.016Z,13.33
2022-12-08T23:45:23.425Z,15.40
2022-12-08T23:47:50.498Z,12.17
2022-12-08T23:50:17.276Z,12.83
2022-12-08T23:52:44.797Z,10.90
2022-12-08T23:55:12.188Z,14.80
2022-12-08T23:57:39.122Z,14.53
